Time;durP1;ratioP1;P1;durP2;ratioP2;P2;SDS_P1;SDS_P2;PMS_P1;PMS_P2;Temp;Humidity;BMP_temperature;BMP_pressure;BME280_temperature;BME280_humidity;BME280_pressure;Samples;Min_cycle;Max_cycle;Signal;HPM_P1;HPM_P2
2023/02/11 00:00:17;;;;;;;25.10;13.33;;;3.70;99.90;;;;;;5086106;28;20477;-64
2023/02/11 00:02:44;;;;;;;34.97;16.73;;;3.70;99.90;;;;;;5087364;28;20546;-62
2023/02/11 00:05:11;;;;;;;24.47;13.90;;;3.70;99.90;;;;;;5087820;28;20475;-62
2023/02/11 00:07:39;;;;;;;35.90;16.30;;;3.70;99.90;;;;;;5086820;28;20870;-63
2023/02/11 00:10:07;;;;;;;35.03;15.00;;;3.70;99.90;;;;;;5087943;28;20469;-62
2023/02/11 00:12:34;;;;;;;35.63;16.03;;;3.70;99.90;;;;;;5087350;28;20943;-63
2023/02/11 00:15:01;;;;;;;31.87;14.17;;;3.70;99.90;;;;;;5087161;28;20462;-62
2023/02/11 00:17:28;;;;;;;20.30;11.60;;;3.70;99.90;;;;;;5087223;28;20494;-63
2023/02/11 00:19:56;;;;;;;26.90;16.27;;;3.70;99.90;;;;;;5089082;28;20446;-63
2023/02/11 00:22:23;;;;;;;39.17;17.07;;;3.60;99.90;;;;;;5089166;28;20509;-64
2023/02/11 00:24:52;;;;;;;27.97;13.93;;;3.60;99.90;;;;;;5075428;28;20469;-62
2023/02/11 00:27:18;;;;;;;40.27;16.33;;;3.60;99.90;;;;;;5070993;28;20470;-64
2023/02/11 00:29:45;;;;;;;35.50;16.83;;;3.60;99.90;;;;;;5071006;28;20523;-62
2023/02/11 00:32:12;;;;;;;39.00;16.03;;;3.60;99.90;;;;;;5070193;28;20467;-62
2023/02/11 00:34:39;;;;;;;35.27;15.70;;;3.70;99.90;;;;;;5070639;28;20498;-62
2023/02/11 00:37:06;;;;;;;44.13;18.07;;;3.70;99.90;;;;;;5070927;28;20477;-63
2023/02/11 00:39:33;;;;;;;53.53;21.63;;;3.60;99.90;;;;;;5070279;28;20782;-62
2023/02/11 00:42:01;;;;;;;36.83;15.20;;;3.60;99.90;;;;;;5069111;28;20554;-63
2023/02/11 00:44:28;;;;;;;32.90;14.03;;;3.70;99.90;;;;;;5069429;28;20455;-64
2023/02/11 00:46:55;;;;;;;31.83;15.53;;;3.70;99.90;;;;;;5069709;28;20491;-64
2023/02/11 00:49:22;;;;;;;39.30;15.23;;;3.80;99.90;;;;;;5069843;28;20487;-65
2023/02/11 00:51:48;;;;;;;33.30;16.43;;;3.80;99.90;;;;;;5068542;28;20459;-63
2023/02/11 00:54:15;;;;;;;39.73;14.50;;;3.80;99.90;;;;;;5068235;28;20503;-63
2023/02/11 00:56:42;;;;;;;28.73;16.10;;;3.90;99.90;;;;;;5068934;28;20526;-61
2023/02/11 00:59:10;;;;;;;28.97;15.07;;;3.90;99.90;;;;;;5069358;28;20479;-63
2023/02/11 01:01:37;;;;;;;19.90;11.93;;;4.00;99.90;;;;;;5069095;28;20949;-62
2023/02/11 01:04:04;;;;;;;36.07;15.30;;;4.00;99.90;;;;;;5068887;28;20518;-63
2023/02/11 01:06:31;;;;;;;30.33;13.87;;;3.90;99.90;;;;;;5068776;28;20523;-63
2023/02/11 01:09:00;;;;;;;25.93;13.13;;;3.90;99.90;;;;;;5068532;28;20841;-64
2023/02/11 01:11:27;;;;;;;28.53;14.10;;;4.00;99.90;;;;;;5068274;28;20478;-63
2023/02/11 01:13:54;;;;;;;32.23;14.67;;;4.00;99.90;;;;;;5067514;28;20487;-64
2023/02/11 01:16:22;;;;;;;37.97;16.93;;;4.00;99.90;;;;;;5067640;28;20537;-63
2023/02/11 01:18:49;;;;;;;37.53;14.90;;;4.10;99.90;;;;;;5067300;28;20462;-63
2023/02/11 01:21:16;;;;;;;44.03;20.53;;;4.10;99.90;;;;;;5068722;28;20479;-61
2023/02/11 01:23:43;;;;;;;26.93;15.00;;;4.10;99.90;;;;;;5067273;28;20554;-63
2023/02/11 01:26:09;;;;;;;47.43;21.03;;;4.10;99.90;;;;;;5067511;28;20490;-64
2023/02/11 01:28:36;;;;;;;34.50;17.30;;;4.20;99.90;;;;;;5067281;28;20467;-62
2023/02/11 01:31:04;;;;;;;32.50;14.70;;;4.10;99.90;;;;;;5068417;28;20545;-63
2023/02/11 01:33:32;;;;;;;30.03;15.57;;;4.10;99.90;;;;;;5068196;28;20926;-63
2023/02/11 01:36:02;;;;;;;33.90;16.23;;;4.10;99.90;;;;;;5067722;28;20467;-62
2023/02/11 01:38:29;;;;;;;26.00;12.40;;;4.10;99.90;;;;;;5067953;28;20486;-63
2023/02/11 01:40:59;;;;;;;33.70;14.73;;;4.10;99.90;;;;;;5068698;28;20471;-62
2023/02/11 01:43:28;;;;;;;30.47;13.00;;;4.10;99.90;;;;;;5067411;28;20562;-62
2023/02/11 01:46:02;;;;;;;27.07;12.77;;;4.10;99.90;;;;;;5068359;28;20503;-62
2023/02/11 01:48:33;;;;;;;27.07;11.10;;;4.10;99.90;;;;;;5066654;28;20509;-62
2023/02/11 01:51:06;;;;;;;32.23;16.83;;;4.10;99.90;;;;;;5067839;28;20482;-62
2023/02/11 01:59:11;;;;;;;33.73;12.60;;;4.10;99.90;;;;;;5066127;28;20459;-64
2023/02/11 02:01:40;;;;;;;28.97;12.57;;;4.20;99.90;;;;;;5065432;28;20459;-63
2023/02/11 02:04:11;;;;;;;29.87;13.80;;;4.30;99.90;;;;;;5064959;28;20577;-63
2023/02/11 02:06:45;;;;;;;29.10;14.77;;;4.30;99.90;;;;;;5066109;28;20428;-62
2023/02/11 02:09:19;;;;;;;23.23;13.60;;;4.40;99.90;;;;;;5066620;28;20493;-61
2023/02/11 02:11:46;;;;;;;29.60;14.80;;;4.40;99.90;;;;;;5067969;28;20919;-63
2023/02/11 02:14:13;;;;;;;37.37;15.63;;;4.30;99.90;;;;;;5067180;28;20499;-63
2023/02/11 02:16:40;;;;;;;38.00;12.53;;;4.30;99.90;;;;;;5065530;28;20506;-63
2023/02/11 02:19:36;;;;;;;28.03;15.50;;;4.40;99.90;;;;;;5065829;28;20528;-64
2023/02/11 02:22:59;;;;;;;39.67;15.43;;;4.40;99.90;;;;;;5022595;28;20444;-62
2023/02/11 02:25:56;;;;;;;34.57;13.00;;;4.50;99.90;;;;;;5066359;28;20664;-63
2023/02/11 02:28:51;;;;;;;21.60;12.53;;;4.50;99.90;;;;;;5060516;28;20550;-62
2023/02/11 02:31:45;;;;;;;22.80;12.60;;;4.50;99.90;;;;;;5065963;28;20499;-63
2023/02/11 02:34:19;;;;;;;37.43;14.30;;;4.50;99.90;;;;;;5065283;28;20467;-62
2023/02/11 02:36:54;;;;;;;31.00;13.40;;;4.60;99.90;;;;;;5065877;28;20527;-63
2023/02/11 02:39:26;;;;;;;24.03;12.00;;;4.60;99.90;;;;;;5066287;28;20505;-63
2023/02/11 02:41:56;;;;;;;29.77;13.50;;;4.60;99.90;;;;;;5065354;28;20518;-63
2023/02/11 02:44:24;;;;;;;41.40;17.20;;;4.70;99.90;;;;;;5065621;28;20547;-64
2023/02/11 02:46:51;;;;;;;29.90;13.90;;;4.70;99.90;;;;;;5065384;28;20475;-63
2023/02/11 02:49:19;;;;;;;30.93;15.33;;;4.80;99.90;;;;;;5065120;28;20491;-62
2023/02/11 02:52:06;;;;;;;29.10;15.50;;;4.80;99.90;;;;;;5064818;28;20474;-63
2023/02/11 02:54:48;;;;;;;32.53;16.10;;;4.80;99.90;;;;;;5065235;28;20524;-64
2023/02/11 02:57:29;;;;;;;34.33;16.80;;;4.80;99.90;;;;;;5079962;28;20434;-62
2023/02/11 03:00:13;;;;;;;22.83;10.43;;;4.90;99.90;;;;;;5084488;28;20497;-64
2023/02/11 03:02:49;;;;;;;31.80;14.63;;;4.90;99.90;;;;;;5084641;28;20515;-62
2023/02/11 03:05:23;;;;;;;30.10;14.70;;;4.90;99.90;;;;;;5083870;28;20490;-63
2023/02/11 03:07:57;;;;;;;29.50;14.33;;;4.90;99.90;;;;;;5083688;28;20458;-61
2023/02/11 03:10:28;;;;;;;30.60;14.17;;;4.90;99.90;;;;;;5083352;28;20552;-63
2023/02/11 03:12:57;;;;;;;32.37;16.30;;;4.90;99.90;;;;;;5084292;28;20433;-64
2023/02/11 03:15:28;;;;;;;25.27;14.60;;;4.90;99.90;;;;;;5083838;28;20608;-62
2023/02/11 03:17:58;;;;;;;35.23;16.23;;;5.00;99.90;;;;;;5084170;28;20481;-64
2023/02/11 03:20:28;;;;;;;32.83;16.20;;;5.00;99.90;;;;;;5083338;28;20466;-63
2023/02/11 03:22:58;;;;;;;33.00;17.27;;;5.10;99.90;;;;;;5084616;28;20484;-62
2023/02/11 03:25:29;;;;;;;36.80;16.90;;;5.10;99.90;;;;;;5096602;28;20466;-63
2023/02/11 03:28:01;;;;;;;28.17;14.03;;;5.10;99.90;;;;;;5096377;28;20461;-62
2023/02/11 03:30:32;;;;;;;32.37;18.40;;;5.10;99.90;;;;;;5096508;28;20502;-61
2023/02/11 03:33:06;;;;;;;35.27;13.70;;;5.20;99.90;;;;;;5096614;28;20450;-63
2023/02/11 03:35:39;;;;;;;34.17;15.43;;;5.20;99.90;;;;;;5096000;28;20469;-63
2023/02/11 03:38:09;;;;;;;45.90;23.50;;;5.20;99.90;;;;;;5096572;28;20430;-61
2023/02/11 03:40:39;;;;;;;30.23;14.17;;;5.20;99.90;;;;;;5096199;28;20450;-64
2023/02/11 03:43:11;;;;;;;35.83;16.17;;;5.20;99.90;;;;;;5096726;28;20482;-63
2023/02/11 03:45:38;;;;;;;30.43;14.93;;;5.20;99.90;;;;;;5096036;28;20496;-61
2023/02/11 03:48:09;;;;;;;33.13;18.17;;;5.20;99.90;;;;;;5096642;28;20427;-62
2023/02/11 03:50:46;;;;;;;34.90;16.37;;;5.20;99.90;;;;;;5096484;28;20505;-62
2023/02/11 03:53:14;;;;;;;30.60;14.50;;;5.20;99.90;;;;;;5095791;28;20469;-62
2023/02/11 03:55:44;;;;;;;36.13;17.27;;;5.20;99.90;;;;;;5096432;28;20481;-65
2023/02/11 03:58:11;;;;;;;33.00;16.20;;;5.30;99.90;;;;;;5096351;28;20449;-63
2023/02/11 04:00:40;;;;;;;31.07;15.90;;;5.30;99.90;;;;;;5096164;28;20473;-62
2023/02/11 04:03:11;;;;;;;31.57;15.57;;;5.30;99.90;;;;;;5090692;28;20451;-63
2023/02/11 04:05:39;;;;;;;34.27;18.03;;;5.30;99.90;;;;;;5076011;28;20431;-64
2023/02/11 04:08:06;;;;;;;32.63;16.90;;;5.30;99.90;;;;;;5076319;28;20475;-62
2023/02/11 04:10:34;;;;;;;41.47;18.00;;;5.30;99.90;;;;;;5076542;28;20443;-63
2023/02/11 04:13:00;;;;;;;35.40;16.93;;;5.30;99.90;;;;;;5075785;28;20451;-63
2023/02/11 04:15:27;;;;;;;38.30;18.47;;;5.30;99.90;;;;;;5075897;28;20725;-64
2023/02/11 04:17:54;;;;;;;39.50;20.00;;;5.30;99.90;;;;;;5075791;28;20466;-62
2023/02/11 04:20:21;;;;;;;34.30;17.37;;;5.30;99.90;;;;;;5075783;28;20478;-61
2023/02/11 04:22:49;;;;;;;31.23;16.67;;;5.30;99.90;;;;;;5076011;28;20447;-62
2023/02/11 04:25:16;;;;;;;33.70;16.43;;;5.30;99.90;;;;;;5076301;28;20475;-61
2023/02/11 04:27:43;;;;;;;36.53;17.13;;;5.30;99.90;;;;;;5075321;28;20430;-61
2023/02/11 04:30:11;;;;;;;27.17;15.07;;;5.30;99.90;;;;;;5075836;28;20448;-63
2023/02/11 04:32:41;;;;;;;39.57;18.33;;;5.30;99.90;;;;;;5075784;28;20443;-63
2023/02/11 04:35:10;;;;;;;41.87;18.63;;;5.40;99.90;;;;;;5076329;28;20491;-64
2023/02/11 04:37:37;;;;;;;45.00;19.60;;;5.40;99.90;;;;;;5075860;28;20443;-62
2023/02/11 04:40:06;;;;;;;30.77;17.53;;;5.40;99.90;;;;;;5075766;28;20443;-62
2023/02/11 04:42:33;;;;;;;37.00;18.57;;;5.40;99.90;;;;;;5076041;28;20454;-65
2023/02/11 04:45:00;;;;;;;52.73;19.77;;;5.40;99.90;;;;;;5076027;28;20501;-62
2023/02/11 04:47:27;;;;;;;37.57;18.33;;;5.40;99.90;;;;;;5076602;28;20482;-60
2023/02/11 04:49:54;;;;;;;41.50;21.33;;;5.40;99.90;;;;;;5076079;28;20460;-60
2023/02/11 04:52:21;;;;;;;37.13;18.97;;;5.40;99.90;;;;;;5075689;28;20499;-63
2023/02/11 04:54:48;;;;;;;35.57;17.37;;;5.40;99.90;;;;;;5075511;28;20454;-62
2023/02/11 04:57:16;;;;;;;35.10;16.97;;;5.40;99.90;;;;;;5075288;28;20463;-63
2023/02/11 04:59:43;;;;;;;35.57;18.00;;;5.40;99.90;;;;;;5085364;28;20445;-63
2023/02/11 05:02:10;;;;;;;34.93;17.97;;;5.40;99.90;;;;;;5096012;28;21029;-62
2023/02/11 05:04:36;;;;;;;35.47;20.97;;;5.40;99.90;;;;;;5095540;28;20477;-62
2023/02/11 05:07:03;;;;;;;29.97;14.33;;;5.40;99.90;;;;;;5099429;28;20458;-63
2023/02/11 05:09:30;;;;;;;40.33;20.10;;;5.40;99.90;;;;;;5099816;28;20450;-63
2023/02/11 05:11:57;;;;;;;35.83;18.23;;;5.30;99.90;;;;;;5098698;28;20452;-62
2023/02/11 05:14:25;;;;;;;38.70;19.53;;;5.30;99.90;;;;;;5097721;28;20429;-60
2023/02/11 05:16:52;;;;;;;47.13;20.63;;;5.30;99.90;;;;;;5096947;28;20462;-63
2023/02/11 05:19:19;;;;;;;44.77;16.30;;;5.30;99.90;;;;;;5096860;28;20437;-60
2023/02/11 05:21:46;;;;;;;39.07;18.67;;;5.30;99.90;;;;;;5090612;28;20473;-62
2023/02/11 05:24:12;;;;;;;34.93;18.93;;;5.30;99.90;;;;;;5090175;28;20519;-61
2023/02/11 05:26:39;;;;;;;41.67;19.40;;;5.30;99.90;;;;;;5089397;28;20458;-64
2023/02/11 05:29:06;;;;;;;42.83;17.30;;;5.30;99.90;;;;;;5088604;28;20512;-64
2023/02/11 05:31:34;;;;;;;46.00;21.70;;;5.20;99.90;;;;;;5090374;28;20470;-64
2023/02/11 05:34:02;;;;;;;38.03;19.53;;;5.30;99.90;;;;;;5087607;28;20923;-63
2023/02/11 05:36:30;;;;;;;38.67;19.37;;;5.30;99.90;;;;;;5087549;28;20461;-64
2023/02/11 05:38:56;;;;;;;42.90;16.90;;;5.30;99.90;;;;;;5088646;28;20454;-63
2023/02/11 05:41:23;;;;;;;38.90;18.90;;;5.30;99.90;;;;;;5089050;28;20494;-63
2023/02/11 05:43:51;;;;;;;44.40;20.73;;;5.30;99.90;;;;;;5088038;28;20596;-64
2023/02/11 05:46:18;;;;;;;44.87;21.00;;;5.30;99.90;;;;;;5087679;28;20477;-64
2023/02/11 05:48:46;;;;;;;37.97;19.60;;;5.30;99.90;;;;;;5086187;28;20470;-64
2023/02/11 05:51:13;;;;;;;50.70;21.60;;;5.30;99.90;;;;;;5089608;28;20510;-65
2023/02/11 05:53:40;;;;;;;44.10;19.37;;;5.30;99.90;;;;;;5088608;28;20506;-63
2023/02/11 05:56:07;;;;;;;50.63;18.73;;;5.30;99.90;;;;;;5088368;28;20529;-64
2023/02/11 05:58:34;;;;;;;36.23;18.87;;;5.40;99.90;;;;;;5085662;28;20506;-63
2023/02/11 06:01:01;;;;;;;40.20;17.50;;;5.40;99.90;;;;;;5084658;28;20446;-63
2023/02/11 06:03:28;;;;;;;41.43;20.67;;;5.40;99.90;;;;;;5086191;28;20501;-64
2023/02/11 06:05:56;;;;;;;42.17;22.60;;;5.40;99.90;;;;;;5086970;28;20470;-64
2023/02/11 06:08:23;;;;;;;45.20;23.53;;;5.40;99.90;;;;;;5086184;28;20525;-64
2023/02/11 06:10:49;;;;;;;51.57;22.20;;;5.40;99.90;;;;;;5086213;28;20542;-64
2023/02/11 06:13:19;;;;;;;44.10;19.17;;;5.40;99.90;;;;;;5085984;28;20472;-64
2023/02/11 06:15:55;;;;;;;47.57;20.00;;;5.40;99.90;;;;;;5087408;28;20439;-63
2023/02/11 06:18:22;;;;;;;49.20;22.50;;;5.40;99.90;;;;;;5086151;28;20430;-62
2023/02/11 06:20:49;;;;;;;45.63;20.27;;;5.40;99.90;;;;;;5087066;28;20474;-63
2023/02/11 06:23:18;;;;;;;45.63;22.57;;;5.40;99.90;;;;;;5087924;28;20438;-64
2023/02/11 06:25:44;;;;;;;47.20;24.00;;;5.40;99.90;;;;;;5087679;28;20493;-63
2023/02/11 06:28:11;;;;;;;39.77;19.77;;;5.40;99.90;;;;;;5085882;28;20451;-64
2023/02/11 06:30:39;;;;;;;59.03;24.80;;;5.40;99.90;;;;;;5085732;28;20485;-63
2023/02/11 06:33:06;;;;;;;39.73;21.20;;;5.50;99.90;;;;;;5084923;28;20521;-63
2023/02/11 06:35:34;;;;;;;45.80;18.93;;;5.50;99.90;;;;;;5084721;28;20502;-64
2023/02/11 06:38:01;;;;;;;43.10;21.73;;;5.50;99.90;;;;;;5087376;28;20430;-64
2023/02/11 06:40:29;;;;;;;47.53;21.83;;;5.50;99.90;;;;;;5087663;28;20572;-64
2023/02/11 06:42:56;;;;;;;47.17;22.33;;;5.60;99.90;;;;;;5087467;28;20449;-64
2023/02/11 06:45:23;;;;;;;46.73;22.87;;;5.60;99.90;;;;;;5084326;28;20573;-64
2023/02/11 06:47:51;;;;;;;37.20;19.83;;;5.70;99.90;;;;;;5085270;28;20486;-60
2023/02/11 06:50:18;;;;;;;47.87;21.33;;;5.70;99.90;;;;;;5084478;28;20525;-63
2023/02/11 06:52:45;;;;;;;46.70;23.53;;;5.70;99.90;;;;;;5084062;28;20534;-64
2023/02/11 06:55:12;;;;;;;50.47;24.60;;;5.60;99.90;;;;;;5083634;28;20785;-64
2023/02/11 06:57:40;;;;;;;44.77;22.57;;;5.70;99.90;;;;;;5082767;28;20513;-64
2023/02/11 07:00:08;;;;;;;41.50;22.57;;;5.70;99.90;;;;;;5082795;28;20514;-63
2023/02/11 07:02:36;;;;;;;42.97;22.90;;;5.70;99.90;;;;;;5083349;28;20470;-64
2023/02/11 07:05:04;;;;;;;36.93;19.37;;;5.70;99.90;;;;;;5083069;28;20474;-64
2023/02/11 07:07:31;;;;;;;41.57;20.50;;;5.70;99.90;;;;;;5084493;28;20538;-65
2023/02/11 07:09:58;;;;;;;44.30;23.17;;;5.70;99.90;;;;;;5084061;28;20466;-64
2023/02/11 07:12:25;;;;;;;47.00;21.73;;;5.70;99.90;;;;;;5083259;28;20446;-64
2023/02/11 07:14:53;;;;;;;45.43;25.40;;;5.80;99.90;;;;;;5082846;28;20554;-64
2023/02/11 07:17:20;;;;;;;51.47;22.47;;;5.80;99.90;;;;;;5083080;28;20508;-63
2023/02/11 07:19:47;;;;;;;45.90;22.63;;;5.80;99.90;;;;;;5083922;28;20518;-63
2023/02/11 07:22:14;;;;;;;50.13;25.20;;;5.70;99.90;;;;;;5083952;28;20521;-64
2023/02/11 07:24:41;;;;;;;46.93;23.47;;;5.70;99.90;;;;;;5083193;28;20553;-64
2023/02/11 07:27:08;;;;;;;46.87;20.03;;;5.70;99.90;;;;;;5082726;28;20549;-63
2023/02/11 07:29:35;;;;;;;41.80;22.20;;;5.70;99.90;;;;;;5082220;28;20461;-64
2023/02/11 07:32:03;;;;;;;53.17;26.20;;;5.70;99.90;;;;;;5082919;28;20554;-64
2023/02/11 07:34:30;;;;;;;51.40;25.17;;;5.70;99.90;;;;;;5083532;28;20439;-64
2023/02/11 07:36:56;;;;;;;40.30;20.83;;;5.70;99.90;;;;;;5083831;28;20505;-64
2023/02/11 07:39:26;;;;;;;51.80;23.83;;;5.70;99.90;;;;;;5083874;28;20754;-64
2023/02/11 07:41:53;;;;;;;51.70;23.93;;;5.70;99.90;;;;;;5083121;28;20446;-60
2023/02/11 07:44:19;;;;;;;46.67;22.00;;;5.80;99.90;;;;;;5083184;28;20581;-63
2023/02/11 07:46:48;;;;;;;51.63;22.00;;;5.80;99.90;;;;;;5083409;28;20512;-63
2023/02/11 07:49:16;;;;;;;44.60;19.97;;;5.80;99.90;;;;;;5083084;28;20939;-64
2023/02/11 07:51:43;;;;;;;45.40;19.07;;;5.90;99.90;;;;;;5083345;28;20834;-64
2023/02/11 07:54:11;;;;;;;41.80;20.97;;;5.90;99.90;;;;;;5082776;28;20497;-64
2023/02/11 07:56:38;;;;;;;65.83;24.30;;;5.90;99.90;;;;;;5082133;28;20438;-64
2023/02/11 07:59:05;;;;;;;29.37;16.87;;;5.90;99.90;;;;;;5083618;28;20465;-62
2023/02/11 08:01:32;;;;;;;33.47;15.33;;;5.90;99.90;;;;;;5083619;28;20442;-63
2023/02/11 08:04:01;;;;;;;51.57;22.03;;;6.00;99.90;;;;;;5082221;28;20533;-64
2023/02/11 08:06:31;;;;;;;42.03;23.03;;;6.00;99.90;;;;;;5083190;28;20434;-63
2023/02/11 08:09:03;;;;;;;48.90;22.97;;;6.10;99.90;;;;;;5083034;28;20942;-63
2023/02/11 08:11:30;;;;;;;48.20;24.20;;;6.10;99.90;;;;;;5083640;28;20474;-63
2023/02/11 08:13:57;;;;;;;35.13;16.47;;;6.10;99.90;;;;;;5083086;28;20470;-64
2023/02/11 08:16:26;;;;;;;50.90;22.73;;;6.10;99.90;;;;;;5081855;28;20512;-63
2023/02/11 08:18:56;;;;;;;53.43;24.20;;;6.10;99.90;;;;;;5082981;28;20517;-63
2023/02/11 08:21:23;;;;;;;43.03;20.40;;;6.20;99.90;;;;;;5082475;28;20461;-64
2023/02/11 08:23:52;;;;;;;40.73;21.10;;;6.20;99.90;;;;;;5082397;28;20808;-64
2023/02/11 08:26:21;;;;;;;42.70;21.53;;;6.20;99.90;;;;;;5081966;28;20497;-63
2023/02/11 08:28:49;;;;;;;43.43;19.60;;;6.30;99.90;;;;;;5083139;28;20556;-63
2023/02/11 08:31:18;;;;;;;54.53;22.53;;;6.30;99.90;;;;;;5082618;28;20526;-63
2023/02/11 08:33:46;;;;;;;48.30;21.13;;;6.30;99.90;;;;;;5081598;28;20552;-62
2023/02/11 08:36:14;;;;;;;46.33;24.03;;;6.30;99.90;;;;;;5080650;28;20529;-62
2023/02/11 08:38:42;;;;;;;48.73;20.13;;;6.30;99.90;;;;;;5082330;28;20466;-64
2023/02/11 08:41:10;;;;;;;41.23;21.00;;;6.40;99.90;;;;;;5083699;28;20478;-63
2023/02/11 08:43:40;;;;;;;36.77;17.87;;;6.40;99.90;;;;;;5085444;28;20477;-64
2023/02/11 08:46:07;;;;;;;44.10;18.63;;;6.40;99.90;;;;;;5086045;28;20478;-65
2023/02/11 08:48:34;;;;;;;50.30;21.80;;;6.40;99.90;;;;;;5086243;28;20488;-62
2023/02/11 08:51:07;;;;;;;32.77;18.70;;;6.40;99.90;;;;;;5085782;28;20469;-64
2023/02/11 08:53:34;;;;;;;39.77;18.70;;;6.40;99.90;;;;;;5085306;28;20437;-63
2023/02/11 08:56:00;;;;;;;41.20;20.30;;;6.40;99.90;;;;;;5085131;28;20522;-64
2023/02/11 08:58:29;;;;;;;36.47;16.80;;;6.40;99.90;;;;;;5085826;28;20442;-64
2023/02/11 09:00:56;;;;;;;33.90;18.33;;;6.40;99.90;;;;;;5085835;28;20498;-64
2023/02/11 09:03:23;;;;;;;52.87;20.17;;;6.50;99.90;;;;;;5085321;28;20499;-64
2023/02/11 09:05:52;;;;;;;42.63;18.60;;;6.40;99.90;;;;;;5084859;28;20485;-62
2023/02/11 09:08:19;;;;;;;46.70;20.37;;;6.40;99.90;;;;;;5086141;28;20442;-63
2023/02/11 09:10:46;;;;;;;45.73;18.20;;;6.40;99.90;;;;;;5084958;28;20513;-64
2023/02/11 09:13:13;;;;;;;43.27;16.53;;;6.40;99.90;;;;;;5084830;28;20496;-64
2023/02/11 09:15:45;;;;;;;40.33;20.10;;;6.50;99.90;;;;;;5086273;28;20438;-65
2023/02/11 09:18:14;;;;;;;49.80;22.40;;;6.50;99.90;;;;;;5084837;28;20481;-64
2023/02/11 09:20:44;;;;;;;33.50;16.50;;;6.50;99.90;;;;;;5085486;28;20458;-64
2023/02/11 09:23:11;;;;;;;43.60;18.27;;;6.50;99.90;;;;;;5085702;28;20496;-64
2023/02/11 09:25:40;;;;;;;46.40;20.80;;;6.50;99.90;;;;;;5085405;28;20462;-65
2023/02/11 09:28:06;;;;;;;44.47;18.97;;;6.50;99.90;;;;;;5084802;28;20442;-65
2023/02/11 09:30:35;;;;;;;40.43;18.50;;;6.50;99.90;;;;;;5085390;28;20442;-64
2023/02/11 09:33:04;;;;;;;33.53;15.50;;;6.50;99.90;;;;;;5086464;28;20446;-64
2023/02/11 09:35:31;;;;;;;36.67;16.87;;;6.60;99.90;;;;;;5085435;28;20477;-64
2023/02/11 09:37:58;;;;;;;34.67;18.00;;;6.50;99.90;;;;;;5084768;28;20468;-64
2023/02/11 09:40:24;;;;;;;30.57;17.73;;;6.60;99.90;;;;;;5084851;28;20458;-65
2023/02/11 09:42:56;;;;;;;32.93;18.57;;;6.60;99.90;;;;;;5084338;28;20465;-63
2023/02/11 09:45:26;;;;;;;43.80;17.93;;;6.60;99.90;;;;;;5084008;28;20497;-64
2023/02/11 09:47:56;;;;;;;36.07;18.50;;;6.70;99.90;;;;;;5091708;28;20446;-65
2023/02/11 09:50:30;;;;;;;41.63;19.10;;;6.70;99.90;;;;;;5098216;28;20446;-62
2023/02/11 09:53:04;;;;;;;31.47;17.07;;;6.70;99.90;;;;;;5097323;28;20446;-64
2023/02/11 09:55:36;;;;;;;48.87;22.80;;;6.80;99.90;;;;;;5098533;28;20419;-62
2023/02/11 09:58:07;;;;;;;48.57;20.83;;;6.70;99.90;;;;;;5098612;28;20466;-66
2023/02/11 10:00:42;;;;;;;52.63;22.40;;;6.80;99.90;;;;;;5098949;28;20426;-64
2023/02/11 10:03:36;;;;;;;21.93;10.83;;;6.80;99.90;;;;;;5099198;28;20462;-65
2023/02/11 10:06:28;;;;;;;42.23;17.80;;;6.80;99.90;;;;;;5099311;28;20497;-64
2023/02/11 10:09:08;;;;;;;25.47;10.90;;;6.80;99.90;;;;;;5099244;28;20485;-65
2023/02/11 10:11:45;;;;;;;35.40;17.60;;;6.80;99.90;;;;;;5099900;28;20462;-66
2023/02/11 10:14:28;;;;;;;34.30;16.67;;;6.80;99.90;;;;;;5098983;28;20425;-65
2023/02/11 10:17:04;;;;;;;44.73;17.13;;;6.90;99.90;;;;;;5099888;28;20430;-66
2023/02/11 10:19:43;;;;;;;37.27;19.83;;;6.80;99.90;;;;;;5099207;28;20435;-64
2023/02/11 10:22:18;;;;;;;53.40;19.00;;;6.80;99.90;;;;;;5099621;28;20430;-65
2023/02/11 10:24:51;;;;;;;33.27;16.40;;;6.80;99.90;;;;;;5099816;28;20403;-64
2023/02/11 10:27:21;;;;;;;45.40;16.57;;;6.80;99.90;;;;;;5100179;28;20426;-61
2023/02/11 10:29:53;;;;;;;36.07;18.00;;;6.80;99.90;;;;;;5099782;28;20438;-65
2023/02/11 10:32:32;;;;;;;31.97;16.00;;;6.80;99.90;;;;;;5099407;28;20462;-64
2023/02/11 10:35:03;;;;;;;48.60;21.17;;;6.80;99.90;;;;;;5099143;28;20425;-65
2023/02/11 10:37:32;;;;;;;29.93;16.67;;;6.80;99.90;;;;;;5099107;28;20450;-64
2023/02/11 10:39:59;;;;;;;36.70;17.70;;;6.80;99.90;;;;;;5098913;28;20472;-62
2023/02/11 10:42:26;;;;;;;34.37;15.97;;;6.80;99.90;;;;;;5098789;28;20426;-62
2023/02/11 10:44:58;;;;;;;31.63;19.10;;;6.80;99.90;;;;;;5098313;28;20449;-64
2023/02/11 10:47:31;;;;;;;46.07;19.70;;;6.80;99.90;;;;;;5099186;28;20491;-64
2023/02/11 10:50:02;;;;;;;33.47;16.17;;;6.80;99.90;;;;;;5098642;28;20493;-66
2023/02/11 10:52:38;;;;;;;30.10;15.80;;;6.90;99.90;;;;;;5098822;28;20411;-66
2023/02/11 10:55:19;;;;;;;29.00;15.57;;;6.80;99.90;;;;;;5098877;28;20484;-65
2023/02/11 10:57:55;;;;;;;37.00;16.40;;;6.80;99.90;;;;;;5098602;28;20454;-65
2023/02/11 11:00:38;;;;;;;32.57;14.93;;;6.80;99.90;;;;;;5098435;28;20505;-68
2023/02/11 11:03:14;;;;;;;39.03;17.17;;;6.90;99.90;;;;;;5096958;28;20481;-63
2023/02/11 11:05:48;;;;;;;16.20;10.97;;;6.90;99.90;;;;;;5098614;28;20442;-66
2023/02/11 11:08:17;;;;;;;37.13;18.83;;;6.90;99.90;;;;;;5098473;28;20497;-66
2023/02/11 11:10:45;;;;;;;41.27;18.90;;;6.90;99.90;;;;;;5098077;28;20433;-65
2023/02/11 11:13:27;;;;;;;34.97;17.43;;;6.90;99.90;;;;;;5098319;28;20514;-64
2023/02/11 11:16:26;;;;;;;34.87;16.43;;;6.90;99.90;;;;;;5098721;28;20418;-67
2023/02/11 11:19:13;;;;;;;24.37;12.70;;;6.80;99.90;;;;;;5098449;28;20446;-64
2023/02/11 11:21:42;;;;;;;36.63;17.30;;;6.80;99.90;;;;;;5098281;28;20443;-67
2023/02/11 11:24:18;;;;;;;34.77;15.80;;;6.80;99.90;;;;;;5098445;28;20447;-65
2023/02/11 11:26:46;;;;;;;35.07;15.77;;;6.80;99.90;;;;;;5098508;28;20507;-64
2023/02/11 11:29:17;;;;;;;29.60;15.97;;;6.90;99.90;;;;;;5098744;28;20446;-61
2023/02/11 11:31:51;;;;;;;30.70;16.83;;;6.90;99.90;;;;;;5098557;28;20446;-64
2023/02/11 11:34:25;;;;;;;35.00;16.90;;;6.80;99.90;;;;;;5098166;28;20427;-62
2023/02/11 11:36:52;;;;;;;23.67;13.97;;;6.90;99.90;;;;;;5097464;28;20418;-65
2023/02/11 11:39:26;;;;;;;40.03;15.07;;;6.90;99.90;;;;;;5097902;28;20442;-64
2023/02/11 11:41:59;;;;;;;20.80;12.00;;;6.80;99.90;;;;;;5098153;28;20406;-66
2023/02/11 11:44:35;;;;;;;32.37;16.10;;;6.80;99.90;;;;;;5097748;28;20471;-63
2023/02/11 11:47:26;;;;;;;32.43;17.40;;;6.80;99.90;;;;;;5097783;28;20470;-66
2023/02/11 11:50:19;;;;;;;35.30;12.57;;;6.90;99.90;;;;;;5097366;28;20466;-66
2023/02/11 11:52:53;;;;;;;27.27;16.50;;;6.90;99.90;;;;;;5098002;28;20423;-63
2023/02/11 11:55:25;;;;;;;20.33;13.30;;;6.90;99.90;;;;;;5097298;28;20419;-67
2023/02/11 11:57:53;;;;;;;25.17;11.80;;;7.00;99.90;;;;;;5097075;28;20426;-64
2023/02/11 12:00:25;;;;;;;25.00;15.17;;;7.00;99.90;;;;;;5097513;28;20419;-66
2023/02/11 12:03:19;;;;;;;18.27;11.17;;;7.00;99.90;;;;;;5097917;28;20486;-66
2023/02/11 12:05:59;;;;;;;26.00;14.13;;;7.10;99.90;;;;;;5098042;28;20473;-64
2023/02/11 12:08:39;;;;;;;22.33;12.50;;;7.00;99.90;;;;;;5097470;28;20497;-63
2023/02/11 12:11:16;;;;;;;31.13;13.77;;;7.10;99.90;;;;;;5097683;28;20430;-63
2023/02/11 12:14:14;;;;;;;20.20;13.03;;;7.10;99.90;;;;;;5097229;28;20490;-66
2023/02/11 12:16:57;;;;;;;25.13;12.63;;;7.10;99.90;;;;;;5088415;28;20434;-65
2023/02/11 12:19:48;;;;;;;16.70;10.93;;;7.20;99.90;;;;;;5097413;28;20426;-64
2023/02/11 12:22:26;;;;;;;23.70;12.23;;;7.20;99.90;;;;;;5096668;28;20425;-65
2023/02/11 12:25:05;;;;;;;19.90;10.90;;;7.20;99.90;;;;;;5097514;28;20418;-64
2023/02/11 12:27:48;;;;;;;26.43;13.47;;;7.30;99.90;;;;;;5097325;28;20504;-62
2023/02/11 12:30:28;;;;;;;26.00;13.07;;;7.30;99.90;;;;;;5097742;28;20526;-65
2023/02/11 12:33:04;;;;;;;25.23;13.93;;;7.30;99.90;;;;;;5097598;28;20450;-64
2023/02/11 12:35:41;;;;;;;28.03;13.53;;;7.30;99.90;;;;;;5097771;28;20410;-66
2023/02/11 12:38:32;;;;;;;31.87;13.17;;;7.30;99.90;;;;;;5097169;28;20450;-62
2023/02/11 12:41:15;;;;;;;26.20;12.57;;;7.30;99.90;;;;;;5097123;28;20444;-63
2023/02/11 12:43:43;;;;;;;32.63;14.00;;;7.30;99.90;;;;;;5097381;28;20482;-65
2023/02/11 12:46:34;;;;;;;19.73;10.10;;;7.30;99.90;;;;;;5097208;28;20478;-63
2023/02/11 12:49:09;;;;;;;28.07;11.20;;;7.30;99.90;;;;;;5097127;28;20765;-65
2023/02/11 12:51:56;;;;;;;25.80;12.97;;;7.30;99.90;;;;;;5097079;28;20469;-64
2023/02/11 12:54:29;;;;;;;22.87;10.03;;;7.30;99.90;;;;;;5076023;28;20430;-61
2023/02/11 12:57:02;;;;;;;21.10;11.50;;;7.30;99.90;;;;;;5096869;28;20470;-61
2023/02/11 12:59:48;;;;;;;26.07;12.47;;;7.30;99.90;;;;;;5097529;28;20457;-60